Impacts TAF Board
For situational awareness. Not to be used for flight planning purposes.
IDs:

KSDL - Scottsdale Muni, AZ, US

Issued at 1740 UTC 02 Aug 2021
Updated at 2041 UTC 02 Aug 2021
Potential Impact None Slight Moderate High
Time1953Z 02/21Z 02/22Z 02/23Z 03/00Z 03/01Z 03/02Z 03/03Z 03/04Z 03/05Z 03/06Z 03/07Z 03/08Z 03/09Z>>
Type OBS PRVL PRVL PRVL PRVL PRVL PRVL PRVL PRVL PRVL PRVL PRVL PRVL PRVL
VIS 10 >6 >6 >6 >6 >6 >6 >6 >6 >6 >6 >6 >6 >6
CIG -- -- -- -- -- -- -- -- -- -- -- -- -- --
Cover CLR FEW FEW FEW FEW FEW FEW FEW FEW FEW FEW FEW FEW FEW
FltCat VFR VFR VFR VFR VFR VFR VFR VFR VFR VFR VFR VFR VFR VFR
WX -- -- -- -- -- -- -- -- -- -- -- -- -- --
WDir 130 250 250 250 250 250 250 140 140 140 140 VRB VRB VRB
WSpd 5 6 6 6 6 6 6 6 6 6 6 3 3 3
WGst -- -- -- -- -- -- -- -- -- -- -- -- -- --
Raw TAF
KSDL 021740Z 0218/0318 VRB05KT P6SM FEW100
  FM022000 25006KT P6SM FEW120
  FM030300 14006KT P6SM FEW120 FEW250
  FM030700 VRB03KT P6SM FEW120 FEW250


Raw METAR
KSDL 021953Z 13005KT 10SM CLR 39/16 A2997 RMK AO2 SLP118 T03890156
KSDL 021853Z 00000KT 10SM CLR 38/16 A3000 RMK AO2 SLP130 T03780161
KSDL 021753Z 10SM CLR 37/16 A3002 RMK AO2 SLP134 T03720161 10372 20300 58007

METAR Board
For situational awareness. Not to be used for flight planning purposes.